createdAt,value
2016-09-30T00:00:55.953Z,64.79
2016-09-30T00:01:55.937Z,64.89
2016-09-30T00:02:55.924Z,65.17
2016-09-30T00:03:55.904Z,64.92
2016-09-30T00:04:55.891Z,65.08
2016-09-30T00:05:55.873Z,65.2
2016-09-30T00:06:55.853Z,65.17
2016-09-30T00:07:55.834Z,64.59
2016-09-30T00:08:55.821Z,64.63
2016-09-30T00:09:55.803Z,64.98
2016-09-30T00:10:55.795Z,64.63
2016-09-30T00:11:55.774Z,65.46
2016-09-30T00:12:55.753Z,65.08
2016-09-30T00:13:55.738Z,65.17
2016-09-30T00:14:55.723Z,64.98
2016-09-30T00:15:55.704Z,64.89
2016-09-30T00:16:55.683Z,65.46
2016-09-30T00:17:55.671Z,65.27
2016-09-30T00:18:55.652Z,65.08
2016-09-30T00:19:55.635Z,65.46
2016-09-30T00:20:55.620Z,65.46
2016-09-30T00:21:55.604Z,65.75
2016-09-30T00:22:55.583Z,65.56
2016-09-30T00:23:55.576Z,64.79
2016-09-30T00:24:55.556Z,65.46
2016-09-30T00:25:55.236Z,64.98
2016-09-30T00:26:55.517Z,64.89
2016-09-30T00:27:55.499Z,65.08
2016-09-30T00:28:55.484Z,64.82
2016-09-30T00:29:55.466Z,64.69
2016-09-30T00:30:55.452Z,64.98
2016-09-30T00:31:55.429Z,65.37
2016-09-30T00:32:55.417Z,64.82
2016-09-30T00:33:55.400Z,65.46
2016-09-30T00:34:55.382Z,64.79
2016-09-30T00:35:55.072Z,65.11
2016-09-30T00:36:55.350Z,64.82
2016-09-30T00:37:55.036Z,65.11
2016-09-30T00:38:55.320Z,65.01
2016-09-30T00:39:55.304Z,65.4
2016-09-30T00:40:55.285Z,64.69
2016-09-30T00:41:55.264Z,65.11
2016-09-30T00:42:55.250Z,65.27
2016-09-30T00:43:55.241Z,65.3
2016-09-30T00:44:55.220Z,65.66
2016-09-30T00:45:55.199Z,64.82
2016-09-30T00:46:55.183Z,64.82
2016-09-30T00:47:55.168Z,64.82
2016-09-30T00:48:54.859Z,65.4
2016-09-30T00:49:55.134Z,65.56
2016-09-30T00:50:55.117Z,65.17
2016-09-30T00:51:55.100Z,64.89
2016-09-30T00:52:55.081Z,64.92
2016-09-30T00:53:55.067Z,65.11
2016-09-30T00:54:54.751Z,64.63
2016-09-30T00:55:55.034Z,65.59
2016-09-30T00:56:55.011Z,64.82
2016-09-30T00:57:55.005Z,64.73
2016-09-30T00:58:54.983Z,64.73
2016-09-30T00:59:54.965Z,65.2
2016-09-30T01:00:54.953Z,65.3
2016-09-30T01:01:54.933Z,65.11
2016-09-30T01:02:54.916Z,65.11
2016-09-30T01:03:54.897Z,65.11
2016-09-30T01:04:54.888Z,65.08
2016-09-30T01:05:54.870Z,65.01
2016-09-30T01:06:54.849Z,64.92
2016-09-30T01:07:54.832Z,64.98
2016-09-30T01:08:54.815Z,64.79
2016-09-30T01:09:54.804Z,64.89
2016-09-30T01:10:54.786Z,65.37
2016-09-30T01:11:54.769Z,65.11
2016-09-30T01:12:54.748Z,65.2
2016-09-30T01:13:54.733Z,64.89
2016-09-30T01:14:54.717Z,65.56
2016-09-30T01:15:54.705Z,65.46
2016-09-30T01:16:54.680Z,65.5
2016-09-30T01:17:54.666Z,65.2
2016-09-30T01:18:54.649Z,65.46
2016-09-30T01:19:54.627Z,65.27
2016-09-30T01:20:54.615Z,65.4
2016-09-30T01:21:54.599Z,65.56
2016-09-30T01:22:54.579Z,65.59
2016-09-30T01:23:54.563Z,65.01
2016-09-30T01:24:54.546Z,65.01
2016-09-30T01:25:54.531Z,65.11
2016-09-30T01:26:54.516Z,64.92
2016-09-30T01:27:54.494Z,64.82
2016-09-30T01:28:54.478Z,64.63
2016-09-30T01:29:54.468Z,65.2
2016-09-30T01:30:54.446Z,65.4
2016-09-30T01:31:54.429Z,65.2
2016-09-30T01:32:54.413Z,65.01
2016-09-30T01:33:54.395Z,65.3
2016-09-30T01:34:54.376Z,64.92
2016-09-30T01:35:54.363Z,64.92
2016-09-30T01:36:54.045Z,64.82
2016-09-30T01:37:54.329Z,64.82
2016-09-30T01:38:54.309Z,65.2
2016-09-30T01:39:54.306Z,65.2
2016-09-30T01:40:54.275Z,65.59
2016-09-30T01:41:54.265Z,65.01
2016-09-30T01:42:54.250Z,64.98
2016-09-30T01:43:54.236Z,65.11
2016-09-30T01:44:54.212Z,65.11
2016-09-30T01:45:54.193Z,65.27
2016-09-30T01:46:54.180Z,65.11
2016-09-30T01:47:54.163Z,65.01
2016-09-30T01:48:54.143Z,65.11
2016-09-30T01:49:54.128Z,65.2
2016-09-30T01:50:54.115Z,65.11
2016-09-30T01:51:54.111Z,64.73
2016-09-30T01:52:54.081Z,65.11
2016-09-30T01:53:53.763Z,65.3
2016-09-30T01:54:53.747Z,65.01
2016-09-30T01:55:54.028Z,64.92
2016-09-30T01:56:54.014Z,65.11
2016-09-30T01:57:53.710Z,64.92
2016-09-30T01:58:53.975Z,65.11
2016-09-30T01:59:53.968Z,65.01
2016-09-30T02:00:53.944Z,65.11
2016-09-30T02:01:53.626Z,65.11
2016-09-30T02:02:53.913Z,65.11
2016-09-30T02:03:53.893Z,65.2
2016-09-30T02:04:53.578Z,65.17
2016-09-30T02:05:53.861Z,64.89
2016-09-30T02:06:53.851Z,65.08
2016-09-30T02:07:53.827Z,65.01
2016-09-30T02:08:53.810Z,65.08
2016-09-30T02:09:53.790Z,65.59
2016-09-30T02:10:53.777Z,65.11
2016-09-30T02:11:53.759Z,65.59
2016-09-30T02:12:53.746Z,65.11
2016-09-30T02:13:53.723Z,64.82
2016-09-30T02:14:53.409Z,65.5
2016-09-30T02:15:53.398Z,65.11
2016-09-30T02:16:53.687Z,65.11
2016-09-30T02:17:53.666Z,65.5
2016-09-30T02:18:53.641Z,65.4
2016-09-30T02:19:53.630Z,65.37
2016-09-30T02:20:53.609Z,65.4
2016-09-30T02:21:53.599Z,64.92
2016-09-30T02:22:53.579Z,64.63
2016-09-30T02:23:53.563Z,64.92
2016-09-30T02:24:53.546Z,64.82
2016-09-30T02:25:53.524Z,65.01
2016-09-30T02:26:53.516Z,65.27
2016-09-30T02:27:53.505Z,64.82
2016-09-30T02:28:53.175Z,65.11
2016-09-30T02:29:53.461Z,65.08
2016-09-30T02:30:53.446Z,65.3
2016-09-30T02:31:53.427Z,65.27
2016-09-30T02:32:53.406Z,65.11
2016-09-30T02:33:53.390Z,64.98
2016-09-30T02:34:53.379Z,64.98
2016-09-30T02:35:53.358Z,65.11
2016-09-30T02:36:53.049Z,65.11
2016-09-30T02:37:53.325Z,65.4
2016-09-30T02:38:53.006Z,65.11
2016-09-30T02:39:53.289Z,65.11
2016-09-30T02:40:53.271Z,65.08
2016-09-30T02:41:53.260Z,65.27
2016-09-30T02:42:53.236Z,65.01
2016-09-30T02:43:52.927Z,65.4
2016-09-30T02:44:53.213Z,65.11
2016-09-30T02:45:53.195Z,64.98
2016-09-30T02:46:53.179Z,65.01
2016-09-30T02:47:53.161Z,64.89
2016-09-30T02:48:52.844Z,65.08
2016-09-30T02:49:53.133Z,65.08
2016-09-30T02:50:53.111Z,64.98
2016-09-30T02:51:53.095Z,65.37
2016-09-30T02:52:53.083Z,65.01
2016-09-30T02:53:53.058Z,64.92
2016-09-30T02:54:53.037Z,65.11
2016-09-30T02:55:52.719Z,64.89
2016-09-30T02:56:53.006Z,64.82
2016-09-30T02:57:52.990Z,65.56
2016-09-30T02:58:52.969Z,64.63
2016-09-30T02:59:52.959Z,65.3
2016-09-30T03:00:52.943Z,65.3
2016-09-30T03:01:52.923Z,65.27
2016-09-30T03:02:52.909Z,64.89
2016-09-30T03:03:52.904Z,65.08
2016-09-30T03:04:52.873Z,65.37
2016-09-30T03:05:52.864Z,64.98
2016-09-30T03:06:52.840Z,65.08
2016-09-30T03:07:52.829Z,65.08
2016-09-30T03:08:52.801Z,65.17
2016-09-30T03:09:52.789Z,65.66
2016-09-30T03:10:52.770Z,65.17
2016-09-30T03:11:52.754Z,65.37
2016-09-30T03:12:52.743Z,65.08
2016-09-30T03:13:52.724Z,64.79
2016-09-30T03:14:52.707Z,64.89
2016-09-30T03:15:52.691Z,65.17
2016-09-30T03:16:52.670Z,65.08
2016-09-30T03:17:52.655Z,64.79
2016-09-30T03:18:52.632Z,64.89
2016-09-30T03:19:52.623Z,64.98
2016-09-30T03:20:52.602Z,65.17
2016-09-30T03:21:52.586Z,65.27
2016-09-30T03:22:52.273Z,65.37
2016-09-30T03:23:52.550Z,65.08
2016-09-30T03:24:52.537Z,65.37
2016-09-30T03:25:52.520Z,65.37
2016-09-30T03:26:52.201Z,65.08
2016-09-30T03:27:52.484Z,65.37
2016-09-30T03:28:52.472Z,65.46
2016-09-30T03:29:52.453Z,65.08
2016-09-30T03:30:52.435Z,65.37
2016-09-30T03:31:52.120Z,65.46
2016-09-30T03:32:52.404Z,65.43
2016-09-30T03:33:52.386Z,65.75
2016-09-30T03:34:52.367Z,65.37
2016-09-30T03:35:52.349Z,65.08
2016-09-30T03:36:52.334Z,65.08
2016-09-30T03:37:52.325Z,65.27
2016-09-30T03:38:52.301Z,65.17
2016-09-30T03:39:52.290Z,64.98
2016-09-30T03:40:52.271Z,64.98
2016-09-30T03:41:52.246Z,64.89
2016-09-30T03:42:51.931Z,65.08
2016-09-30T03:43:51.921Z,65.08
2016-09-30T03:44:52.196Z,64.98
2016-09-30T03:45:52.183Z,65.08
2016-09-30T03:46:52.165Z,65.56
2016-09-30T03:47:52.150Z,65.56
2016-09-30T03:48:52.132Z,64.89
2016-09-30T03:49:52.114Z,65.27
2016-09-30T03:50:52.102Z,65.37
2016-09-30T03:51:52.082Z,65.46
2016-09-30T03:52:52.064Z,65.17
2016-09-30T03:53:52.050Z,65.27
2016-09-30T03:54:51.732Z,65.27
2016-09-30T03:55:52.012Z,64.89
2016-09-30T03:56:51.697Z,65.17
2016-09-30T03:57:51.992Z,65.56
2016-09-30T03:58:51.965Z,65.08
2016-09-30T03:59:51.946Z,65.08
2016-09-30T04:00:51.934Z,65.27
2016-09-30T04:01:51.912Z,65.17
2016-09-30T04:02:51.902Z,65.56
2016-09-30T04:03:51.878Z,65.66
2016-09-30T04:04:51.863Z,65.46
2016-09-30T04:05:51.848Z,65.46
2016-09-30T04:06:51.828Z,65.27
2016-09-30T04:07:51.512Z,65.37
2016-09-30T04:08:51.496Z,65.75
2016-09-30T04:09:51.783Z,65.46
2016-09-30T04:10:51.464Z,65.66
2016-09-30T04:11:51.751Z,65.37
2016-09-30T04:12:51.735Z,65.17
2016-09-30T04:13:51.408Z,64.98
2016-09-30T04:14:51.694Z,65.37
2016-09-30T04:15:51.682Z,65.08
2016-09-30T04:16:51.667Z,65.17
2016-09-30T04:17:51.645Z,65.17
2016-09-30T04:18:51.326Z,65.27
2016-09-30T04:19:51.611Z,65.17
2016-09-30T04:20:51.598Z,65.46
2016-09-30T04:21:51.585Z,65.08
2016-09-30T04:22:51.557Z,65.17
2016-09-30T04:23:51.543Z,65.08
2016-09-30T04:24:51.529Z,65.08
2016-09-30T04:25:51.511Z,64.89
2016-09-30T04:26:51.495Z,65.08
2016-09-30T04:27:51.174Z,64.69
2016-09-30T04:28:51.465Z,65.27
2016-09-30T04:29:51.443Z,64.79
2016-09-30T04:30:51.128Z,64.98
2016-09-30T04:31:51.409Z,64.89
2016-09-30T04:32:51.391Z,65.17
2016-09-30T04:33:51.374Z,65.27
2016-09-30T04:34:51.355Z,64.79
2016-09-30T04:35:51.342Z,64.79
2016-09-30T04:36:51.329Z,64.89
2016-09-30T04:37:51.306Z,64.89
2016-09-30T04:38:51.287Z,64.98
2016-09-30T04:39:50.970Z,64.98
2016-09-30T04:40:51.253Z,65.56
2016-09-30T04:41:51.238Z,64.79
2016-09-30T04:42:51.226Z,65.08
2016-09-30T04:43:51.210Z,65.75
2016-09-30T04:44:51.191Z,64.79
2016-09-30T04:45:51.272Z,64.89
2016-09-30T04:46:50.854Z,65.08
2016-09-30T04:47:50.831Z,65.56
2016-09-30T04:48:51.119Z,64.98
2016-09-30T04:49:51.110Z,64.98
2016-09-30T04:50:51.088Z,64.79
2016-09-30T04:51:51.075Z,65.08
2016-09-30T04:52:51.052Z,65.08
2016-09-30T04:53:51.033Z,64.89
2016-09-30T04:54:51.023Z,65.08
2016-09-30T04:55:51.008Z,65.37
2016-09-30T04:56:50.685Z,65.08
2016-09-30T04:57:50.973Z,65.17
2016-09-30T04:58:50.960Z,65.17
2016-09-30T04:59:50.944Z,64.89
2016-09-30T05:00:50.923Z,65.08
2016-09-30T05:01:50.599Z,65.27
2016-09-30T05:02:50.887Z,65.63
2016-09-30T05:03:50.868Z,65.27
2016-09-30T05:04:50.859Z,65.17
2016-09-30T05:05:50.839Z,65.08
2016-09-30T05:06:50.816Z,65.46
2016-09-30T05:07:50.503Z,65.46
2016-09-30T05:08:50.789Z,65.27
2016-09-30T05:09:50.760Z,65.66
2016-09-30T05:10:50.751Z,65.46
2016-09-30T05:11:50.733Z,65.37
2016-09-30T05:12:50.724Z,65.17
2016-09-30T05:13:50.701Z,65.17
2016-09-30T05:14:50.677Z,65.37
2016-09-30T05:15:50.673Z,65.37
2016-09-30T05:16:50.652Z,65.46
2016-09-30T05:17:50.636Z,65.27
2016-09-30T05:18:50.622Z,65.27
2016-09-30T05:19:50.598Z,65.56
2016-09-30T05:20:50.587Z,65.27
2016-09-30T05:21:50.571Z,65.27
2016-09-30T05:22:50.547Z,65.33
2016-09-30T05:23:50.529Z,65.43
2016-09-30T05:24:50.514Z,65.66
2016-09-30T05:25:50.497Z,65.53
2016-09-30T05:26:50.480Z,65.17
2016-09-30T05:27:50.163Z,65.46
2016-09-30T05:28:50.448Z,65.56
2016-09-30T05:29:50.436Z,65.17
2016-09-30T05:30:50.115Z,65.56
2016-09-30T05:31:50.391Z,64.89
2016-09-30T05:32:50.377Z,65.08
2016-09-30T05:33:50.369Z,65.08
2016-09-30T05:34:50.351Z,65.46
2016-09-30T05:35:50.329Z,65.27
2016-09-30T05:36:50.328Z,65.27
2016-09-30T05:37:50.301Z,65.75
2016-09-30T05:38:50.278Z,65.27
2016-09-30T05:39:50.264Z,65.08
2016-09-30T05:40:50.246Z,65.27
2016-09-30T05:41:50.228Z,65.24
2016-09-30T05:42:50.210Z,65.17
2016-09-30T05:43:50.197Z,65.37
2016-09-30T05:44:50.177Z,65.43
2016-09-30T05:45:50.159Z,65.53
2016-09-30T05:46:50.150Z,65.43
2016-09-30T05:47:50.130Z,65.56
2016-09-30T05:48:50.105Z,65.27
2016-09-30T05:49:50.090Z,65.43
2016-09-30T05:50:50.077Z,65.24
2016-09-30T05:51:50.057Z,65.08
2016-09-30T05:52:50.045Z,65.43
2016-09-30T05:53:49.722Z,65.56
2016-09-30T05:54:50.008Z,65.56
2016-09-30T05:55:49.999Z,64.89
2016-09-30T05:56:49.980Z,64.79
2016-09-30T05:57:49.657Z,65.46
2016-09-30T05:58:49.939Z,64.79
2016-09-30T05:59:49.620Z,65.08
2016-09-30T06:00:49.910Z,65.56
2016-09-30T06:01:49.894Z,65.37
2016-09-30T06:02:49.870Z,65.08
2016-09-30T06:03:49.855Z,64.98
2016-09-30T06:04:49.836Z,65.08
2016-09-30T06:05:49.832Z,64.79
2016-09-30T06:06:49.814Z,64.89
2016-09-30T06:07:49.786Z,64.69
2016-09-30T06:08:49.780Z,64.4
2016-09-30T06:09:49.753Z,64.69
2016-09-30T06:10:49.737Z,65.17
2016-09-30T06:11:49.719Z,64.59
2016-09-30T06:12:49.703Z,64.5
2016-09-30T06:13:49.686Z,64.69
2016-09-30T06:14:49.676Z,64.63
2016-09-30T06:15:49.651Z,64.89
2016-09-30T06:16:49.635Z,64.5
2016-09-30T06:17:49.618Z,64.25
2016-09-30T06:18:49.599Z,64.34
2016-09-30T06:19:49.587Z,64.31
2016-09-30T06:20:49.565Z,64.59
2016-09-30T06:21:49.553Z,64.98
2016-09-30T06:22:49.231Z,64.69
2016-09-30T06:23:49.522Z,64.79
2016-09-30T06:24:49.505Z,64.59
2016-09-30T06:25:49.481Z,64.5
2016-09-30T06:26:49.467Z,64.69
2016-09-30T06:27:49.451Z,65.27
2016-09-30T06:28:49.433Z,64.79
2016-09-30T06:29:49.416Z,65.27
2016-09-30T06:30:49.400Z,65.08
2016-09-30T06:31:49.381Z,64.98
2016-09-30T06:32:49.362Z,64.79
2016-09-30T06:33:49.347Z,64.59
2016-09-30T06:34:49.336Z,65.37
2016-09-30T06:35:49.317Z,64.98
2016-09-30T06:36:48.995Z,65.08
2016-09-30T06:37:49.284Z,64.89
2016-09-30T06:38:49.263Z,65.08
2016-09-30T06:39:49.248Z,65.08
2016-09-30T06:40:49.233Z,64.79
2016-09-30T06:41:49.215Z,64.4
2016-09-30T06:42:49.200Z,64.5
2016-09-30T06:43:48.880Z,64.69
2016-09-30T06:44:49.163Z,64.21
2016-09-30T06:45:49.169Z,64.59
2016-09-30T06:46:49.132Z,64.69
2016-09-30T06:47:49.110Z,64.4
2016-09-30T06:48:49.108Z,64.59
2016-09-30T06:49:49.078Z,64.69
2016-09-30T06:50:49.057Z,64.5
2016-09-30T06:51:49.046Z,64.98
2016-09-30T06:52:49.036Z,64.79
2016-09-30T06:53:49.009Z,64.79
2016-09-30T06:54:48.698Z,64.69
2016-09-30T06:55:48.977Z,64.5
2016-09-30T06:56:48.660Z,64.79
2016-09-30T06:57:48.944Z,65.27
2016-09-30T06:58:48.926Z,65.17
2016-09-30T06:59:48.913Z,64.21
2016-09-30T07:00:48.891Z,64.69
2016-09-30T07:01:48.878Z,64.79
2016-09-30T07:02:48.859Z,64.5
2016-09-30T07:03:48.843Z,64.89
2016-09-30T07:04:48.832Z,64.4
2016-09-30T07:05:48.806Z,65.17
2016-09-30T07:06:48.796Z,64.69
2016-09-30T07:07:48.475Z,64.69
2016-09-30T07:08:48.763Z,64.59
2016-09-30T07:09:48.740Z,64.59
2016-09-30T07:10:48.726Z,64.5
2016-09-30T07:11:48.706Z,64.59
2016-09-30T07:12:48.690Z,65.08
2016-09-30T07:13:48.376Z,64.59
2016-09-30T07:14:48.665Z,64.98
2016-09-30T07:15:48.635Z,64.79
2016-09-30T07:16:48.325Z,64.59
2016-09-30T07:17:48.608Z,64.79
2016-09-30T07:18:48.591Z,64.79
2016-09-30T07:19:48.584Z,64.59
2016-09-30T07:20:48.553Z,64.79
2016-09-30T07:21:48.819Z,64.5
2016-09-30T07:22:48.522Z,64.79
2016-09-30T07:23:48.504Z,64.59
2016-09-30T07:24:48.485Z,64.79
2016-09-30T07:25:48.170Z,64.59
2016-09-30T07:26:48.460Z,64.69
2016-09-30T07:27:48.433Z,64.5
2016-09-30T07:28:48.416Z,64.69
2016-09-30T07:29:48.397Z,64.59
2016-09-30T07:30:48.385Z,64.89
2016-09-30T07:31:48.373Z,64.5
2016-09-30T07:32:48.349Z,64.79
2016-09-30T07:33:48.333Z,64.79
2016-09-30T07:34:48.314Z,64.5
2016-09-30T07:35:48.299Z,64.69
2016-09-30T07:36:48.283Z,64.59
2016-09-30T07:37:48.264Z,64.98
2016-09-30T07:38:48.249Z,64.69
2016-09-30T07:39:48.232Z,64.59
2016-09-30T07:40:48.222Z,64.79
2016-09-30T07:41:48.199Z,64.59
2016-09-30T07:42:48.186Z,64.59
2016-09-30T07:43:48.165Z,64.69
2016-09-30T07:44:48.149Z,64.4
2016-09-30T07:45:48.130Z,64.31
2016-09-30T07:46:48.122Z,64.12
2016-09-30T07:47:48.098Z,64.31
2016-09-30T07:48:48.087Z,64.21
2016-09-30T07:49:48.063Z,64.31
2016-09-30T07:50:48.046Z,64.12
2016-09-30T07:51:48.026Z,64.12
2016-09-30T07:52:48.019Z,64.02
2016-09-30T07:53:47.994Z,64.31
2016-09-30T07:54:47.679Z,64.31
2016-09-30T07:55:47.959Z,64.5
2016-09-30T07:56:47.942Z,64.12
2016-09-30T07:57:47.627Z,64.5
2016-09-30T07:58:47.912Z,64.31
2016-09-30T07:59:47.898Z,64.59
2016-09-30T08:00:47.876Z,63.92
2016-09-30T08:01:47.858Z,64.31
2016-09-30T08:02:47.845Z,64.21
2016-09-30T08:03:47.838Z,64.89
2016-09-30T08:04:47.807Z,64.21
2016-09-30T08:05:47.794Z,64.4
2016-09-30T08:06:47.782Z,64.15
2016-09-30T08:07:47.756Z,64.34
2016-09-30T08:08:47.740Z,64.25
2016-09-30T08:09:47.724Z,64.15
2016-09-30T08:10:47.708Z,63.95
2016-09-30T08:11:47.690Z,64.34
2016-09-30T08:12:47.682Z,63.95
2016-09-30T08:13:47.658Z,64.05
2016-09-30T08:14:47.639Z,63.95
2016-09-30T08:15:47.619Z,64.34
2016-09-30T08:16:47.606Z,65.3
2016-09-30T08:17:47.597Z,64.82
2016-09-30T08:18:47.567Z,64.56
2016-09-30T08:19:47.556Z,65.24
2016-09-30T08:20:47.541Z,64.76
2016-09-30T08:21:47.518Z,64.92
2016-09-30T08:22:47.503Z,65.24
2016-09-30T08:23:47.184Z,64.86
2016-09-30T08:24:47.472Z,64.53
2016-09-30T08:25:47.158Z,64.56
2016-09-30T08:26:47.142Z,64.76
2016-09-30T08:27:47.421Z,64.86
2016-09-30T08:28:47.108Z,65.05
2016-09-30T08:29:47.385Z,64.76
2016-09-30T08:30:47.370Z,64.86
2016-09-30T08:31:47.362Z,64.66
2016-09-30T08:32:47.339Z,65.24
2016-09-30T08:33:47.322Z,64.86
2016-09-30T08:34:47.298Z,64.95
2016-09-30T08:35:47.285Z,65.14
2016-09-30T08:36:46.975Z,65.14
2016-09-30T08:37:47.256Z,65.43
2016-09-30T08:38:47.237Z,65.63
2016-09-30T08:39:46.925Z,65.33
2016-09-30T08:40:47.217Z,64.66
2016-09-30T08:41:47.184Z,64.76
2016-09-30T08:42:47.170Z,65.43
2016-09-30T08:43:47.155Z,64.76
2016-09-30T08:44:47.127Z,65.14
2016-09-30T08:45:46.821Z,64.66
2016-09-30T08:46:47.101Z,64.56
2016-09-30T08:47:47.083Z,64.76
2016-09-30T08:48:47.365Z,64.76
2016-09-30T08:49:47.048Z,64.66
2016-09-30T08:50:47.036Z,64.86
2016-09-30T08:51:47.009Z,64.95
2016-09-30T08:52:47.002Z,64.86
2016-09-30T08:53:46.987Z,64.56
2016-09-30T08:54:46.967Z,64.86
2016-09-30T08:55:46.650Z,64.37
2016-09-30T08:56:46.933Z,64.37
2016-09-30T08:57:46.918Z,64.37
2016-09-30T08:58:46.899Z,64.28
2016-09-30T08:59:46.879Z,64.37
2016-09-30T09:00:46.868Z,64.18
2016-09-30T09:01:46.846Z,64.56
2016-09-30T09:02:46.836Z,64.37
2016-09-30T09:03:46.819Z,64.47
2016-09-30T09:04:46.498Z,64.28
2016-09-30T09:05:46.784Z,64.28
2016-09-30T09:06:46.467Z,64.28
2016-09-30T09:07:46.756Z,64.08
2016-09-30T09:08:46.732Z,63.98
2016-09-30T09:09:46.416Z,63.89
2016-09-30T09:10:46.697Z,63.89
2016-09-30T09:11:46.685Z,63.98
2016-09-30T09:12:46.670Z,64.18
2016-09-30T09:13:46.651Z,63.41
2016-09-30T09:14:46.633Z,63.41
2016-09-30T09:15:46.616Z,63.7
2016-09-30T09:16:46.299Z,63.41
2016-09-30T09:17:46.595Z,63.41
2016-09-30T09:18:46.564Z,63.41
2016-09-30T09:19:46.256Z,63.79
2016-09-30T09:20:46.533Z,63.6
2016-09-30T09:21:46.517Z,63.7
2016-09-30T09:22:46.502Z,63.6
2016-09-30T09:23:46.483Z,63.31
2016-09-30T09:24:46.470Z,63.89
2016-09-30T09:25:46.144Z,63.89
2016-09-30T09:26:46.434Z,63.98
2016-09-30T09:27:46.420Z,63.02
2016-09-30T09:28:46.099Z,63.41
2016-09-30T09:29:46.394Z,63.31
2016-09-30T09:30:46.366Z,63.21
2016-09-30T09:31:46.368Z,63.31
2016-09-30T09:32:46.040Z,63.41
2016-09-30T09:33:46.327Z,63.21
2016-09-30T09:34:46.302Z,63.21
2016-09-30T09:35:46.297Z,63.41
2016-09-30T09:36:46.269Z,63.12
2016-09-30T09:37:46.251Z,63.41
2016-09-30T09:38:46.231Z,63.31
2016-09-30T09:39:46.220Z,63.31
2016-09-30T09:40:45.898Z,63.31
2016-09-30T09:41:45.884Z,63.34
2016-09-30T09:42:46.166Z,63.31
2016-09-30T09:43:46.148Z,63.34
2016-09-30T09:44:46.142Z,63.24
2016-09-30T09:45:46.129Z,63.12
2016-09-30T09:46:46.100Z,63.6
2016-09-30T09:47:46.090Z,63.54
2016-09-30T09:48:45.771Z,63.41
2016-09-30T09:49:46.051Z,62.63
2016-09-30T09:50:46.036Z,62.66
2016-09-30T09:51:46.016Z,62.73
2016-09-30T09:52:46.001Z,63.02
2016-09-30T09:53:45.994Z,62.96
2016-09-30T09:54:45.672Z,63.15
2016-09-30T09:55:45.949Z,63.21
2016-09-30T09:56:45.931Z,63.02
2016-09-30T09:57:45.921Z,63.02
2016-09-30T09:58:45.902Z,63.12
2016-09-30T09:59:45.890Z,62.86
2016-09-30T10:00:45.568Z,62.83
2016-09-30T10:01:45.556Z,62.93
2016-09-30T10:02:45.534Z,63.12
2016-09-30T10:03:45.520Z,62.93
2016-09-30T10:04:45.509Z,63.02
2016-09-30T10:05:45.787Z,62.57
2016-09-30T10:06:45.769Z,62.57
2016-09-30T10:07:45.454Z,62.63
2016-09-30T10:08:45.443Z,62.45
2016-09-30T10:09:45.429Z,62.73
2016-09-30T10:10:45.854Z,62.76
2016-09-30T10:11:45.691Z,62.45
2016-09-30T10:12:45.669Z,62.45
2016-09-30T10:13:45.651Z,62.73
2016-09-30T10:14:45.638Z,62.63
2016-09-30T10:15:45.625Z,62.35
2016-09-30T10:16:45.316Z,62.73
2016-09-30T10:17:45.305Z,62.38
2016-09-30T10:18:45.577Z,62.15
2016-09-30T10:19:45.550Z,62.15
2016-09-30T10:20:45.539Z,62.35
2016-09-30T10:21:45.523Z,61.96
2016-09-30T10:22:45.508Z,62.57
2016-09-30T10:23:45.497Z,62.28
2016-09-30T10:24:45.473Z,62.38
2016-09-30T10:25:45.455Z,62.35
2016-09-30T10:26:45.439Z,61.77
2016-09-30T10:27:45.422Z,62.18
2016-09-30T10:28:45.404Z,62.28
2016-09-30T10:29:45.400Z,62.25
2016-09-30T10:30:45.373Z,62.06
2016-09-30T10:31:45.357Z,62.45
2016-09-30T10:32:45.343Z,62.15
2016-09-30T10:33:45.326Z,62.18
2016-09-30T10:34:45.305Z,61.87
2016-09-30T10:35:45.291Z,62.06
2016-09-30T10:36:44.977Z,61.71
2016-09-30T10:37:45.257Z,62.15
2016-09-30T10:38:45.243Z,62.15
2016-09-30T10:39:45.223Z,61.29
2016-09-30T10:40:44.907Z,61.87
2016-09-30T10:41:45.188Z,61.38
2016-09-30T10:42:44.871Z,61.87
2016-09-30T10:43:44.860Z,61.9
2016-09-30T10:44:45.145Z,61.9
2016-09-30T10:45:45.125Z,61.68
2016-09-30T10:46:44.802Z,61.48
2016-09-30T10:47:44.789Z,61.48
2016-09-30T10:48:45.081Z,62.18
2016-09-30T10:49:45.072Z,61.71
2016-09-30T10:50:45.051Z,61.38
2016-09-30T10:51:45.029Z,62.28
2016-09-30T10:52:45.010Z,62.28
2016-09-30T10:53:44.991Z,61.8
2016-09-30T10:54:44.676Z,61.68
2016-09-30T10:55:44.964Z,61.51
2016-09-30T10:56:44.940Z,61.8
2016-09-30T10:57:44.925Z,61.61
2016-09-30T10:58:44.922Z,61.32
2016-09-30T10:59:44.891Z,61.29
2016-09-30T11:00:44.884Z,61.32
2016-09-30T11:01:44.865Z,61.41
2016-09-30T11:02:44.855Z,61.41
2016-09-30T11:03:44.523Z,61.51
2016-09-30T11:04:44.820Z,61.61
2016-09-30T11:05:44.797Z,61.41
2016-09-30T11:06:44.785Z,61.1
2016-09-30T11:07:44.761Z,61.03
2016-09-30T11:08:44.745Z,61.03
2016-09-30T11:09:44.730Z,61.41
2016-09-30T11:10:44.413Z,61.41
2016-09-30T11:11:44.393Z,61.41
2016-09-30T11:12:44.681Z,61.32
2016-09-30T11:13:44.667Z,61.38
2016-09-30T11:15:44.627Z,61.51
2016-09-30T11:16:44.619Z,61.22
2016-09-30T11:17:44.592Z,61.32
2016-09-30T11:18:44.579Z,61
2016-09-30T11:19:44.264Z,61.71
2016-09-30T11:20:44.548Z,61.32
2016-09-30T11:21:44.531Z,61.32
2016-09-30T11:22:44.511Z,61.41
2016-09-30T11:23:44.496Z,61.32
2016-09-30T11:24:44.188Z,61.41
2016-09-30T11:25:44.466Z,61.61
2016-09-30T11:26:44.449Z,61.71
2016-09-30T11:27:44.132Z,61.61
2016-09-30T11:28:44.119Z,61.51
2016-09-30T11:29:44.395Z,61.22
2016-09-30T11:30:44.382Z,61.61
2016-09-30T11:31:44.367Z,61.61
2016-09-30T11:32:44.351Z,61.03
2016-09-30T11:33:44.030Z,61.03
2016-09-30T11:34:44.313Z,61.13
2016-09-30T11:35:44.305Z,60.64
2016-09-30T11:36:44.283Z,60.93
2016-09-30T11:37:44.266Z,61.22
2016-09-30T11:38:43.955Z,60.93
2016-09-30T11:39:44.236Z,60.93
2016-09-30T11:40:44.219Z,60.93
2016-09-30T11:41:44.201Z,60.74
2016-09-30T11:42:43.884Z,60.83
2016-09-30T11:43:44.167Z,60.83
2016-09-30T11:44:44.153Z,60.93
2016-09-30T11:45:44.156Z,60.55
2016-09-30T11:46:44.127Z,60.74
2016-09-30T11:47:44.108Z,61.03
2016-09-30T11:48:44.091Z,60.74
2016-09-30T11:49:44.079Z,60.74
2016-09-30T11:50:43.755Z,60.55
2016-09-30T11:51:44.036Z,60.55
2016-09-30T11:52:44.027Z,60.55
2016-09-30T11:53:44.016Z,60.74
2016-09-30T11:54:43.986Z,60.93
2016-09-30T11:55:43.669Z,60.45
2016-09-30T11:56:43.949Z,60.45
2016-09-30T11:57:43.935Z,60.64
2016-09-30T11:58:43.922Z,60.55
2016-09-30T11:59:43.605Z,60.35
2016-09-30T12:00:43.887Z,60.93
2016-09-30T12:01:44.671Z,60.55
2016-09-30T12:02:43.859Z,60.35
2016-09-30T12:03:44.083Z,60.64
2016-09-30T12:04:43.517Z,60.45
2016-09-30T12:05:43.803Z,60.74
2016-09-30T12:06:43.795Z,60.74
2016-09-30T12:07:43.788Z,60.74
2016-09-30T12:08:43.451Z,60.55
2016-09-30T12:09:43.736Z,60.55
2016-09-30T12:10:43.423Z,60.55
2016-09-30T12:11:43.402Z,60.64
2016-09-30T12:12:43.685Z,60.64
2016-09-30T12:13:43.670Z,60.74
2016-09-30T12:14:43.674Z,60.74
2016-09-30T12:15:43.643Z,61.71
2016-09-30T12:16:43.322Z,62.09
2016-09-30T12:17:43.303Z,61.99
2016-09-30T12:18:43.591Z,62.28
2016-09-30T12:19:43.579Z,62.28
2016-09-30T12:20:43.556Z,62.38
2016-09-30T12:21:43.539Z,62.38
2016-09-30T12:22:43.224Z,62.38
2016-09-30T12:23:43.510Z,62.66
2016-09-30T12:24:43.483Z,63.15
2016-09-30T12:25:43.477Z,62.7
2016-09-30T12:26:43.158Z,63.44
2016-09-30T12:27:43.448Z,63.54
2016-09-30T12:28:43.423Z,63.37
2016-09-30T12:29:43.433Z,63.18
2016-09-30T12:30:43.403Z,63.54
2016-09-30T12:31:43.078Z,63.06
2016-09-30T12:32:43.060Z,63.18
2016-09-30T12:33:43.356Z,63.28
2016-09-30T12:34:43.046Z,63.44
2016-09-30T12:35:43.313Z,62.7
2016-09-30T12:36:43.300Z,63.34
2016-09-30T12:37:43.287Z,63.44
2016-09-30T12:38:43.261Z,64.05
2016-09-30T12:39:43.268Z,64.05
2016-09-30T12:40:43.229Z,63.47
2016-09-30T12:41:43.206Z,63.28
2016-09-30T12:42:43.194Z,63.44
2016-09-30T12:43:42.881Z,63.37
2016-09-30T12:44:43.165Z,63.37
2016-09-30T12:45:43.150Z,63.37
2016-09-30T12:46:43.137Z,62.99
2016-09-30T12:47:42.829Z,62.89
2016-09-30T12:48:43.104Z,63.37
2016-09-30T12:49:43.082Z,63.28
2016-09-30T12:50:43.066Z,63.28
2016-09-30T12:51:43.047Z,63.18
2016-09-30T12:52:43.033Z,63.85
2016-09-30T12:53:43.024Z,63.18
2016-09-30T12:54:43.006Z,63.28
2016-09-30T12:55:42.995Z,63.28